Terminal Aerodrome Forecast
Issued by NWS

Home | Current Version | Previous Version | Text Only | Print | Product List | Glossary On
Versions: 1 2 3 4 5 6 7 8 9 10 11 12 13 14
645
FTUS46 KPDT 291120
TAFPSC
TAF
KPSC 291120Z 2912/3012 VRB03KT P6SM SKC
     FM291800 22008KT P6SM SCT180
     FM292300 23009KT P6SM BKN100
     FM300700 22010KT P6SM VCSH SCT060 BKN090=

USA.gov is the U.S. government's official web portal to all federal, state and local government web resources and services.